sensor_id;sensor_type;location;lat;lon;timestamp;P1;durP1;ratioP1;P2;durP2;ratioP2
20012;SDS011;76844;42.852;23.042;2024-02-28T00:02:00;31.10;;;17.50;;
20012;SDS011;76844;42.852;23.042;2024-02-28T00:04:30;25.13;;;13.90;;
20012;SDS011;76844;42.852;23.042;2024-02-28T00:07:00;23.67;;;15.27;;
20012;SDS011;76844;42.852;23.042;2024-02-28T00:09:29;26.30;;;16.67;;
20012;SDS011;76844;42.852;23.042;2024-02-28T00:12:00;30.25;;;17.63;;
20012;SDS011;76844;42.852;23.042;2024-02-28T00:14:31;24.05;;;16.20;;
20012;SDS011;76844;42.852;23.042;2024-02-28T00:17:03;25.60;;;15.75;;
20012;SDS011;76844;42.852;23.042;2024-02-28T00:19:33;24.52;;;16.17;;
20012;SDS011;76844;42.852;23.042;2024-02-28T00:22:03;29.92;;;17.13;;
20012;SDS011;76844;42.852;23.042;2024-02-28T00:24:33;26.02;;;15.77;;
20012;SDS011;76844;42.852;23.042;2024-02-28T00:27:03;63.83;;;32.88;;
20012;SDS011;76844;42.852;23.042;2024-02-28T00:29:34;30.98;;;18.38;;
20012;SDS011;76844;42.852;23.042;2024-02-28T00:32:06;25.13;;;14.65;;
20012;SDS011;76844;42.852;23.042;2024-02-28T00:34:36;32.03;;;18.55;;
20012;SDS011;76844;42.852;23.042;2024-02-28T00:37:08;31.90;;;17.75;;
20012;SDS011;76844;42.852;23.042;2024-02-28T00:39:43;32.38;;;19.10;;
20012;SDS011;76844;42.852;23.042;2024-02-28T00:42:13;27.10;;;17.23;;
20012;SDS011;76844;42.852;23.042;2024-02-28T00:44:43;23.75;;;14.10;;
20012;SDS011;76844;42.852;23.042;2024-02-28T00:47:15;25.15;;;15.48;;
20012;SDS011;76844;42.852;23.042;2024-02-28T00:49:45;28.08;;;15.32;;
20012;SDS011;76844;42.852;23.042;2024-02-28T00:52:14;25.38;;;15.43;;
20012;SDS011;76844;42.852;23.042;2024-02-28T00:54:43;32.85;;;19.83;;
20012;SDS011;76844;42.852;23.042;2024-02-28T00:57:14;35.97;;;19.73;;
20012;SDS011;76844;42.852;23.042;2024-02-28T00:59:44;25.60;;;15.68;;
20012;SDS011;76844;42.852;23.042;2024-02-28T01:02:15;22.35;;;14.13;;
20012;SDS011;76844;42.852;23.042;2024-02-28T01:04:46;22.25;;;13.43;;
20012;SDS011;76844;42.852;23.042;2024-02-28T01:07:15;26.70;;;15.40;;
20012;SDS011;76844;42.852;23.042;2024-02-28T01:09:45;26.17;;;16.23;;
20012;SDS011;76844;42.852;23.042;2024-02-28T01:12:15;27.48;;;16.23;;
20012;SDS011;76844;42.852;23.042;2024-02-28T01:14:45;26.42;;;16.00;;
20012;SDS011;76844;42.852;23.042;2024-02-28T01:17:17;28.70;;;16.67;;
20012;SDS011;76844;42.852;23.042;2024-02-28T01:19:46;21.23;;;13.13;;
20012;SDS011;76844;42.852;23.042;2024-02-28T01:22:17;23.15;;;14.15;;
20012;SDS011;76844;42.852;23.042;2024-02-28T01:24:46;22.77;;;13.40;;
20012;SDS011;76844;42.852;23.042;2024-02-28T01:27:17;24.35;;;13.50;;
20012;SDS011;76844;42.852;23.042;2024-02-28T01:29:46;25.75;;;16.02;;
20012;SDS011;76844;42.852;23.042;2024-02-28T01:32:18;27.20;;;16.08;;
20012;SDS011;76844;42.852;23.042;2024-02-28T01:34:47;27.08;;;16.15;;
20012;SDS011;76844;42.852;23.042;2024-02-28T01:37:17;29.08;;;17.70;;
20012;SDS011;76844;42.852;23.042;2024-02-28T01:39:47;29.65;;;17.00;;
20012;SDS011;76844;42.852;23.042;2024-02-28T01:42:18;32.08;;;18.52;;
20012;SDS011;76844;42.852;23.042;2024-02-28T01:44:48;37.22;;;20.60;;
20012;SDS011;76844;42.852;23.042;2024-02-28T01:47:20;29.83;;;18.33;;
20012;SDS011;76844;42.852;23.042;2024-02-28T01:49:49;33.03;;;18.95;;
20012;SDS011;76844;42.852;23.042;2024-02-28T01:52:21;35.25;;;20.55;;
20012;SDS011;76844;42.852;23.042;2024-02-28T01:54:52;32.20;;;20.00;;
20012;SDS011;76844;42.852;23.042;2024-02-28T01:57:23;32.85;;;19.83;;
20012;SDS011;76844;42.852;23.042;2024-02-28T01:59:54;27.33;;;15.85;;
20012;SDS011;76844;42.852;23.042;2024-02-28T02:02:26;30.38;;;18.55;;
20012;SDS011;76844;42.852;23.042;2024-02-28T02:04:56;47.60;;;25.02;;
20012;SDS011;76844;42.852;23.042;2024-02-28T02:07:27;38.22;;;20.50;;
20012;SDS011;76844;42.852;23.042;2024-02-28T02:09:57;31.92;;;19.17;;
20012;SDS011;76844;42.852;23.042;2024-02-28T02:12:27;40.08;;;21.60;;
20012;SDS011;76844;42.852;23.042;2024-02-28T02:17:31;29.45;;;18.15;;
20012;SDS011;76844;42.852;23.042;2024-02-28T02:20:01;34.55;;;18.63;;
20012;SDS011;76844;42.852;23.042;2024-02-28T02:22:35;35.10;;;19.45;;
20012;SDS011;76844;42.852;23.042;2024-02-28T02:25:07;43.92;;;22.05;;
20012;SDS011;76844;42.852;23.042;2024-02-28T02:27:37;36.03;;;20.73;;
20012;SDS011;76844;42.852;23.042;2024-02-28T02:30:08;37.00;;;20.15;;
20012;SDS011;76844;42.852;23.042;2024-02-28T02:32:39;28.98;;;17.90;;
20012;SDS011;76844;42.852;23.042;2024-02-28T02:35:09;26.50;;;16.85;;
20012;SDS011;76844;42.852;23.042;2024-02-28T02:37:44;51.72;;;28.25;;
20012;SDS011;76844;42.852;23.042;2024-02-28T02:40:15;41.72;;;24.40;;
20012;SDS011;76844;42.852;23.042;2024-02-28T02:42:46;42.67;;;24.88;;
20012;SDS011;76844;42.852;23.042;2024-02-28T02:45:15;30.02;;;17.88;;
20012;SDS011;76844;42.852;23.042;2024-02-28T02:47:46;35.00;;;20.00;;
20012;SDS011;76844;42.852;23.042;2024-02-28T02:50:16;44.53;;;25.40;;
20012;SDS011;76844;42.852;23.042;2024-02-28T02:52:47;43.45;;;25.77;;
20012;SDS011;76844;42.852;23.042;2024-02-28T02:55:16;38.75;;;21.85;;
20012;SDS011;76844;42.852;23.042;2024-02-28T02:57:46;35.45;;;19.83;;
20012;SDS011;76844;42.852;23.042;2024-02-28T03:00:16;32.28;;;20.13;;
20012;SDS011;76844;42.852;23.042;2024-02-28T03:02:45;29.17;;;18.25;;
20012;SDS011;76844;42.852;23.042;2024-02-28T03:05:15;33.88;;;19.65;;
20012;SDS011;76844;42.852;23.042;2024-02-28T03:07:46;37.15;;;20.40;;
20012;SDS011;76844;42.852;23.042;2024-02-28T03:10:16;39.65;;;21.30;;
20012;SDS011;76844;42.852;23.042;2024-02-28T03:12:45;46.53;;;25.05;;
20012;SDS011;76844;42.852;23.042;2024-02-28T03:15:15;44.10;;;25.90;;
20012;SDS011;76844;42.852;23.042;2024-02-28T03:17:45;61.92;;;33.83;;
20012;SDS011;76844;42.852;23.042;2024-02-28T03:20:15;54.05;;;30.25;;
20012;SDS011;76844;42.852;23.042;2024-02-28T03:22:47;47.40;;;27.15;;
20012;SDS011;76844;42.852;23.042;2024-02-28T03:25:17;41.15;;;24.88;;
20012;SDS011;76844;42.852;23.042;2024-02-28T03:27:47;47.75;;;25.88;;
20012;SDS011;76844;42.852;23.042;2024-02-28T03:30:17;48.00;;;25.88;;
20012;SDS011;76844;42.852;23.042;2024-02-28T03:32:46;39.63;;;24.02;;
20012;SDS011;76844;42.852;23.042;2024-02-28T03:35:17;36.53;;;22.55;;
20012;SDS011;76844;42.852;23.042;2024-02-28T03:37:48;31.70;;;19.70;;
20012;SDS011;76844;42.852;23.042;2024-02-28T03:40:18;36.20;;;22.02;;
20012;SDS011;76844;42.852;23.042;2024-02-28T03:42:47;30.02;;;19.08;;
20012;SDS011;76844;42.852;23.042;2024-02-28T03:45:17;35.38;;;22.45;;
20012;SDS011;76844;42.852;23.042;2024-02-28T03:47:47;39.42;;;22.77;;
20012;SDS011;76844;42.852;23.042;2024-02-28T03:50:18;32.65;;;19.02;;
20012;SDS011;76844;42.852;23.042;2024-02-28T03:52:49;32.13;;;20.02;;
20012;SDS011;76844;42.852;23.042;2024-02-28T03:55:19;35.40;;;20.38;;
20012;SDS011;76844;42.852;23.042;2024-02-28T03:57:48;37.92;;;21.70;;
20012;SDS011;76844;42.852;23.042;2024-02-28T04:00:19;37.40;;;22.63;;
20012;SDS011;76844;42.852;23.042;2024-02-28T04:02:49;40.45;;;22.95;;
20012;SDS011;76844;42.852;23.042;2024-02-28T04:05:19;41.83;;;26.38;;
20012;SDS011;76844;42.852;23.042;2024-02-28T04:07:51;33.38;;;19.65;;
20012;SDS011;76844;42.852;23.042;2024-02-28T04:10:22;43.55;;;25.60;;
20012;SDS011;76844;42.852;23.042;2024-02-28T04:12:51;48.88;;;25.20;;
20012;SDS011;76844;42.852;23.042;2024-02-28T04:15:21;50.50;;;29.92;;
20012;SDS011;76844;42.852;23.042;2024-02-28T04:17:53;42.88;;;24.10;;
20012;SDS011;76844;42.852;23.042;2024-02-28T04:20:23;45.78;;;27.17;;
20012;SDS011;76844;42.852;23.042;2024-02-28T04:22:55;42.65;;;24.33;;
20012;SDS011;76844;42.852;23.042;2024-02-28T04:25:24;50.20;;;28.40;;
20012;SDS011;76844;42.852;23.042;2024-02-28T04:27:54;38.60;;;23.38;;
20012;SDS011;76844;42.852;23.042;2024-02-28T04:30:24;41.30;;;24.38;;
20012;SDS011;76844;42.852;23.042;2024-02-28T04:32:54;45.78;;;23.98;;
20012;SDS011;76844;42.852;23.042;2024-02-28T04:35:24;52.03;;;27.13;;
20012;SDS011;76844;42.852;23.042;2024-02-28T04:37:55;45.83;;;24.17;;
20012;SDS011;76844;42.852;23.042;2024-02-28T04:40:24;45.22;;;23.75;;
20012;SDS011;76844;42.852;23.042;2024-02-28T04:42:54;53.30;;;28.63;;
20012;SDS011;76844;42.852;23.042;2024-02-28T04:45:23;46.47;;;26.88;;
20012;SDS011;76844;42.852;23.042;2024-02-28T04:47:53;67.32;;;32.83;;
20012;SDS011;76844;42.852;23.042;2024-02-28T04:50:24;73.28;;;32.72;;
20012;SDS011;76844;42.852;23.042;2024-02-28T04:52:55;47.90;;;27.35;;
20012;SDS011;76844;42.852;23.042;2024-02-28T04:55:25;54.33;;;27.75;;
20012;SDS011;76844;42.852;23.042;2024-02-28T04:57:55;62.58;;;31.75;;
20012;SDS011;76844;42.852;23.042;2024-02-28T05:00:25;69.93;;;33.03;;
20012;SDS011;76844;42.852;23.042;2024-02-28T05:02:55;61.13;;;31.38;;
20012;SDS011;76844;42.852;23.042;2024-02-28T05:05:25;70.65;;;33.13;;
20012;SDS011;76844;42.852;23.042;2024-02-28T05:07:56;81.20;;;38.88;;
20012;SDS011;76844;42.852;23.042;2024-02-28T05:10:25;62.05;;;31.73;;
20012;SDS011;76844;42.852;23.042;2024-02-28T05:12:55;63.63;;;31.73;;
20012;SDS011;76844;42.852;23.042;2024-02-28T05:15:25;63.38;;;34.55;;
20012;SDS011;76844;42.852;23.042;2024-02-28T05:17:54;80.00;;;35.70;;
20012;SDS011;76844;42.852;23.042;2024-02-28T05:20:24;80.65;;;35.55;;
20012;SDS011;76844;42.852;23.042;2024-02-28T05:22:53;70.35;;;35.63;;
20012;SDS011;76844;42.852;23.042;2024-02-28T05:25:24;67.25;;;39.00;;
20012;SDS011;76844;42.852;23.042;2024-02-28T05:27:53;64.38;;;37.35;;
20012;SDS011;76844;42.852;23.042;2024-02-28T05:30:23;70.28;;;37.88;;
20012;SDS011;76844;42.852;23.042;2024-02-28T05:32:52;74.28;;;41.30;;
20012;SDS011;76844;42.852;23.042;2024-02-28T05:35:22;69.13;;;38.60;;
20012;SDS011;76844;42.852;23.042;2024-02-28T05:37:53;109.05;;;47.35;;
20012;SDS011;76844;42.852;23.042;2024-02-28T05:40:24;74.30;;;39.65;;
20012;SDS011;76844;42.852;23.042;2024-02-28T05:42:54;78.75;;;41.33;;
20012;SDS011;76844;42.852;23.042;2024-02-28T05:45:24;95.03;;;49.72;;
20012;SDS011;76844;42.852;23.042;2024-02-28T05:47:54;99.28;;;44.63;;
20012;SDS011;76844;42.852;23.042;2024-02-28T05:50:23;81.45;;;47.35;;
20012;SDS011;76844;42.852;23.042;2024-02-28T05:52:54;95.22;;;53.45;;
20012;SDS011;76844;42.852;23.042;2024-02-28T05:55:25;144.82;;;76.20;;
20012;SDS011;76844;42.852;23.042;2024-02-28T05:57:55;104.22;;;55.22;;
20012;SDS011;76844;42.852;23.042;2024-02-28T06:00:25;89.00;;;44.33;;
20012;SDS011;76844;42.852;23.042;2024-02-28T06:02:55;109.75;;;50.78;;
20012;SDS011;76844;42.852;23.042;2024-02-28T06:05:25;112.63;;;52.75;;
20012;SDS011;76844;42.852;23.042;2024-02-28T06:07:55;85.70;;;44.08;;
20012;SDS011;76844;42.852;23.042;2024-02-28T06:10:26;101.90;;;44.70;;
20012;SDS011;76844;42.852;23.042;2024-02-28T06:13:00;82.00;;;41.05;;
20012;SDS011;76844;42.852;23.042;2024-02-28T06:17:59;96.55;;;43.83;;
20012;SDS011;76844;42.852;23.042;2024-02-28T06:20:29;86.85;;;40.70;;
20012;SDS011;76844;42.852;23.042;2024-02-28T06:22:59;115.65;;;55.13;;
20012;SDS011;76844;42.852;23.042;2024-02-28T06:25:43;126.75;;;56.88;;
20012;SDS011;76844;42.852;23.042;2024-02-28T06:28:13;71.78;;;37.72;;
20012;SDS011;76844;42.852;23.042;2024-02-28T06:30:43;61.15;;;34.03;;
20012;SDS011;76844;42.852;23.042;2024-02-28T06:33:13;67.97;;;38.40;;
20012;SDS011;76844;42.852;23.042;2024-02-28T06:35:43;68.63;;;37.33;;
20012;SDS011;76844;42.852;23.042;2024-02-28T06:38:13;71.07;;;39.17;;
20012;SDS011;76844;42.852;23.042;2024-02-28T06:40:44;58.05;;;33.17;;
20012;SDS011;76844;42.852;23.042;2024-02-28T06:43:13;64.82;;;34.83;;
20012;SDS011;76844;42.852;23.042;2024-02-28T06:45:44;69.88;;;38.13;;
20012;SDS011;76844;42.852;23.042;2024-02-28T06:48:14;77.85;;;41.22;;
20012;SDS011;76844;42.852;23.042;2024-02-28T06:50:44;71.88;;;40.05;;
20012;SDS011;76844;42.852;23.042;2024-02-28T06:53:14;76.53;;;42.97;;
20012;SDS011;76844;42.852;23.042;2024-02-28T06:55:46;84.43;;;41.20;;
20012;SDS011;76844;42.852;23.042;2024-02-28T06:58:16;62.35;;;35.33;;
20012;SDS011;76844;42.852;23.042;2024-02-28T07:00:46;80.55;;;38.47;;
20012;SDS011;76844;42.852;23.042;2024-02-28T07:03:21;76.13;;;41.03;;
20012;SDS011;76844;42.852;23.042;2024-02-28T07:05:51;82.57;;;39.30;;
20012;SDS011;76844;42.852;23.042;2024-02-28T07:08:22;69.63;;;37.25;;
20012;SDS011;76844;42.852;23.042;2024-02-28T07:10:53;71.57;;;39.85;;
20012;SDS011;76844;42.852;23.042;2024-02-28T07:13:23;54.63;;;31.60;;
20012;SDS011;76844;42.852;23.042;2024-02-28T07:15:54;56.45;;;33.05;;
20012;SDS011;76844;42.852;23.042;2024-02-28T07:18:25;58.42;;;36.15;;
20012;SDS011;76844;42.852;23.042;2024-02-28T07:20:56;81.38;;;43.90;;
20012;SDS011;76844;42.852;23.042;2024-02-28T07:23:26;53.92;;;34.63;;
20012;SDS011;76844;42.852;23.042;2024-02-28T07:25:56;58.33;;;32.50;;
20012;SDS011;76844;42.852;23.042;2024-02-28T07:28:40;66.00;;;34.88;;
20012;SDS011;76844;42.852;23.042;2024-02-28T07:31:14;47.30;;;28.30;;
20012;SDS011;76844;42.852;23.042;2024-02-28T07:33:43;41.80;;;25.15;;
20012;SDS011;76844;42.852;23.042;2024-02-28T07:36:15;39.05;;;24.08;;
20012;SDS011;76844;42.852;23.042;2024-02-28T07:38:44;37.20;;;25.08;;
20012;SDS011;76844;42.852;23.042;2024-02-28T07:41:16;35.33;;;24.08;;
20012;SDS011;76844;42.852;23.042;2024-02-28T07:43:46;38.88;;;24.42;;
20012;SDS011;76844;42.852;23.042;2024-02-28T07:46:16;36.78;;;24.83;;
20012;SDS011;76844;42.852;23.042;2024-02-28T07:48:46;39.58;;;25.33;;
20012;SDS011;76844;42.852;23.042;2024-02-28T07:51:16;37.35;;;25.45;;
20012;SDS011;76844;42.852;23.042;2024-02-28T07:53:46;42.83;;;25.92;;
20012;SDS011;76844;42.852;23.042;2024-02-28T07:56:17;34.75;;;22.50;;
20012;SDS011;76844;42.852;23.042;2024-02-28T07:58:47;38.20;;;26.13;;
20012;SDS011;76844;42.852;23.042;2024-02-28T08:01:17;38.35;;;25.10;;
20012;SDS011;76844;42.852;23.042;2024-02-28T08:03:47;43.88;;;25.05;;
20012;SDS011;76844;42.852;23.042;2024-02-28T08:06:17;52.72;;;25.73;;
20012;SDS011;76844;42.852;23.042;2024-02-28T08:08:47;36.83;;;24.58;;
20012;SDS011;76844;42.852;23.042;2024-02-28T08:11:17;33.90;;;23.10;;
20012;SDS011;76844;42.852;23.042;2024-02-28T08:13:47;38.17;;;23.98;;
20012;SDS011;76844;42.852;23.042;2024-02-28T08:16:18;34.53;;;22.92;;
20012;SDS011;76844;42.852;23.042;2024-02-28T08:18:48;35.72;;;23.40;;
20012;SDS011;76844;42.852;23.042;2024-02-28T08:21:17;36.13;;;23.42;;
20012;SDS011;76844;42.852;23.042;2024-02-28T08:23:49;36.65;;;23.58;;
20012;SDS011;76844;42.852;23.042;2024-02-28T08:26:20;40.92;;;25.65;;
20012;SDS011;76844;42.852;23.042;2024-02-28T08:28:50;33.53;;;23.88;;
20012;SDS011;76844;42.852;23.042;2024-02-28T08:31:20;39.47;;;23.40;;
20012;SDS011;76844;42.852;23.042;2024-02-28T08:33:51;40.45;;;24.13;;
20012;SDS011;76844;42.852;23.042;2024-02-28T08:36:23;38.15;;;21.92;;
20012;SDS011;76844;42.852;23.042;2024-02-28T08:38:52;31.52;;;21.02;;
20012;SDS011;76844;42.852;23.042;2024-02-28T08:41:24;45.83;;;23.67;;
20012;SDS011;76844;42.852;23.042;2024-02-28T08:43:54;42.45;;;21.52;;
20012;SDS011;76844;42.852;23.042;2024-02-28T08:46:24;39.10;;;21.67;;
20012;SDS011;76844;42.852;23.042;2024-02-28T08:48:54;32.17;;;20.67;;
20012;SDS011;76844;42.852;23.042;2024-02-28T08:51:23;35.95;;;21.85;;
20012;SDS011;76844;42.852;23.042;2024-02-28T08:53:55;33.22;;;21.20;;
20012;SDS011;76844;42.852;23.042;2024-02-28T08:56:28;33.55;;;19.98;;
20012;SDS011;76844;42.852;23.042;2024-02-28T08:58:58;32.50;;;19.48;;
20012;SDS011;76844;42.852;23.042;2024-02-28T09:01:30;32.67;;;20.73;;
20012;SDS011;76844;42.852;23.042;2024-02-28T09:04:02;31.35;;;19.90;;
20012;SDS011;76844;42.852;23.042;2024-02-28T09:06:32;28.88;;;20.40;;
20012;SDS011;76844;42.852;23.042;2024-02-28T09:09:02;31.73;;;20.40;;
20012;SDS011;76844;42.852;23.042;2024-02-28T09:11:35;35.88;;;20.58;;
20012;SDS011;76844;42.852;23.042;2024-02-28T09:14:06;30.00;;;20.90;;
20012;SDS011;76844;42.852;23.042;2024-02-28T09:16:36;33.33;;;20.70;;
20012;SDS011;76844;42.852;23.042;2024-02-28T09:19:07;36.75;;;22.83;;
20012;SDS011;76844;42.852;23.042;2024-02-28T09:21:37;33.60;;;21.50;;
20012;SDS011;76844;42.852;23.042;2024-02-28T09:24:07;34.90;;;20.73;;
20012;SDS011;76844;42.852;23.042;2024-02-28T09:26:40;29.48;;;20.55;;
20012;SDS011;76844;42.852;23.042;2024-02-28T09:29:10;28.55;;;21.08;;
20012;SDS011;76844;42.852;23.042;2024-02-28T09:31:41;32.58;;;21.55;;
20012;SDS011;76844;42.852;23.042;2024-02-28T09:34:11;33.50;;;22.20;;
20012;SDS011;76844;42.852;23.042;2024-02-28T09:36:41;30.42;;;21.08;;
20012;SDS011;76844;42.852;23.042;2024-02-28T09:39:17;30.45;;;18.80;;
20012;SDS011;76844;42.852;23.042;2024-02-28T09:41:51;30.50;;;20.00;;
20012;SDS011;76844;42.852;23.042;2024-02-28T09:44:21;31.05;;;19.98;;
20012;SDS011;76844;42.852;23.042;2024-02-28T09:46:53;32.72;;;20.48;;
20012;SDS011;76844;42.852;23.042;2024-02-28T09:49:23;38.92;;;20.83;;
20012;SDS011;76844;42.852;23.042;2024-02-28T09:51:55;26.17;;;18.20;;
20012;SDS011;76844;42.852;23.042;2024-02-28T09:54:27;27.23;;;17.80;;
20012;SDS011;76844;42.852;23.042;2024-02-28T09:57:01;35.25;;;20.10;;
20012;SDS011;76844;42.852;23.042;2024-02-28T09:59:36;31.90;;;19.83;;
20012;SDS011;76844;42.852;23.042;2024-02-28T10:02:20;31.10;;;22.00;;
20012;SDS011;76844;42.852;23.042;2024-02-28T10:04:52;33.75;;;21.13;;
20012;SDS011;76844;42.852;23.042;2024-02-28T10:07:23;36.85;;;21.60;;
20012;SDS011;76844;42.852;23.042;2024-02-28T10:09:52;35.95;;;21.10;;
20012;SDS011;76844;42.852;23.042;2024-02-28T10:12:25;44.15;;;23.30;;
20012;SDS011;76844;42.852;23.042;2024-02-28T10:14:55;30.85;;;19.35;;
20012;SDS011;76844;42.852;23.042;2024-02-28T10:17:24;31.58;;;19.70;;
20012;SDS011;76844;42.852;23.042;2024-02-28T10:19:57;30.75;;;20.13;;
20012;SDS011;76844;42.852;23.042;2024-02-28T10:22:33;26.65;;;18.30;;
20012;SDS011;76844;42.852;23.042;2024-02-28T10:25:03;30.13;;;21.48;;
20012;SDS011;76844;42.852;23.042;2024-02-28T10:27:36;36.50;;;23.73;;
20012;SDS011;76844;42.852;23.042;2024-02-28T10:30:06;33.97;;;20.83;;
20012;SDS011;76844;42.852;23.042;2024-02-28T10:32:37;35.80;;;19.27;;
20012;SDS011;76844;42.852;23.042;2024-02-28T10:35:17;32.55;;;18.35;;
20012;SDS011;76844;42.852;23.042;2024-02-28T10:37:52;28.13;;;17.50;;
20012;SDS011;76844;42.852;23.042;2024-02-28T10:40:23;26.30;;;16.88;;
20012;SDS011;76844;42.852;23.042;2024-02-28T10:42:54;41.63;;;17.58;;
20012;SDS011;76844;42.852;23.042;2024-02-28T10:45:26;38.55;;;16.70;;
20012;SDS011;76844;42.852;23.042;2024-02-28T10:48:19;23.77;;;13.02;;
20012;SDS011;76844;42.852;23.042;2024-02-28T10:50:49;22.35;;;14.25;;
20012;SDS011;76844;42.852;23.042;2024-02-28T10:56:01;20.95;;;13.48;;
20012;SDS011;76844;42.852;23.042;2024-02-28T10:58:35;25.83;;;15.57;;
20012;SDS011;76844;42.852;23.042;2024-02-28T11:01:06;21.38;;;14.15;;
20012;SDS011;76844;42.852;23.042;2024-02-28T11:03:38;25.17;;;15.30;;
20012;SDS011;76844;42.852;23.042;2024-02-28T11:06:16;18.70;;;13.02;;
20012;SDS011;76844;42.852;23.042;2024-02-28T11:08:47;35.70;;;13.63;;
20012;SDS011;76844;42.852;23.042;2024-02-28T11:11:22;20.25;;;13.10;;
20012;SDS011;76844;42.852;23.042;2024-02-28T11:13:53;21.40;;;13.40;;
20012;SDS011;76844;42.852;23.042;2024-02-28T11:18:57;20.52;;;10.75;;
20012;SDS011;76844;42.852;23.042;2024-02-28T11:21:34;20.50;;;10.85;;
20012;SDS011;76844;42.852;23.042;2024-02-28T11:24:04;19.80;;;10.25;;
20012;SDS011;76844;42.852;23.042;2024-02-28T11:26:36;16.73;;;9.47;;
20012;SDS011;76844;42.852;23.042;2024-02-28T11:29:08;19.65;;;10.30;;
20012;SDS011;76844;42.852;23.042;2024-02-28T11:31:39;19.88;;;11.07;;
20012;SDS011;76844;42.852;23.042;2024-02-28T11:34:10;23.63;;;12.13;;
20012;SDS011;76844;42.852;23.042;2024-02-28T11:36:40;22.05;;;12.25;;
20012;SDS011;76844;42.852;23.042;2024-02-28T11:39:12;15.75;;;10.23;;
20012;SDS011;76844;42.852;23.042;2024-02-28T11:41:43;16.98;;;9.98;;
20012;SDS011;76844;42.852;23.042;2024-02-28T11:44:16;22.50;;;12.38;;
20012;SDS011;76844;42.852;23.042;2024-02-28T11:46:48;16.15;;;10.38;;
20012;SDS011;76844;42.852;23.042;2024-02-28T11:49:18;14.82;;;9.45;;
20012;SDS011;76844;42.852;23.042;2024-02-28T11:51:52;25.40;;;10.45;;
20012;SDS011;76844;42.852;23.042;2024-02-28T11:54:24;19.52;;;9.00;;
20012;SDS011;76844;42.852;23.042;2024-02-28T11:56:55;19.50;;;8.25;;
20012;SDS011;76844;42.852;23.042;2024-02-28T11:59:28;22.67;;;9.73;;
20012;SDS011;76844;42.852;23.042;2024-02-28T12:01:59;15.60;;;8.77;;
20012;SDS011;76844;42.852;23.042;2024-02-28T12:04:41;24.45;;;8.00;;
20012;SDS011;76844;42.852;23.042;2024-02-28T12:07:12;16.70;;;7.75;;
20012;SDS011;76844;42.852;23.042;2024-02-28T12:09:43;13.82;;;7.47;;
20012;SDS011;76844;42.852;23.042;2024-02-28T12:12:13;19.73;;;8.20;;
20012;SDS011;76844;42.852;23.042;2024-02-28T12:14:45;14.60;;;6.15;;
20012;SDS011;76844;42.852;23.042;2024-02-28T12:17:15;16.50;;;8.27;;
20012;SDS011;76844;42.852;23.042;2024-02-28T12:19:46;19.85;;;6.20;;
20012;SDS011;76844;42.852;23.042;2024-02-28T12:22:21;15.00;;;5.38;;
20012;SDS011;76844;42.852;23.042;2024-02-28T12:24:51;12.30;;;5.40;;
20012;SDS011;76844;42.852;23.042;2024-02-28T12:27:21;18.92;;;6.80;;
20012;SDS011;76844;42.852;23.042;2024-02-28T12:29:53;15.77;;;6.63;;
20012;SDS011;76844;42.852;23.042;2024-02-28T12:32:23;21.60;;;10.45;;
20012;SDS011;76844;42.852;23.042;2024-02-28T12:34:52;22.17;;;9.38;;
20012;SDS011;76844;42.852;23.042;2024-02-28T12:37:23;18.25;;;8.38;;
20012;SDS011;76844;42.852;23.042;2024-02-28T12:39:53;19.95;;;6.88;;
20012;SDS011;76844;42.852;23.042;2024-02-28T12:42:23;11.05;;;5.80;;
20012;SDS011;76844;42.852;23.042;2024-02-28T12:44:53;13.25;;;6.88;;
20012;SDS011;76844;42.852;23.042;2024-02-28T12:47:23;20.88;;;8.20;;
20012;SDS011;76844;42.852;23.042;2024-02-28T12:49:53;15.75;;;6.30;;
20012;SDS011;76844;42.852;23.042;2024-02-28T12:52:22;13.02;;;5.70;;
20012;SDS011;76844;42.852;23.042;2024-02-28T12:54:52;13.38;;;6.03;;
20012;SDS011;76844;42.852;23.042;2024-02-28T12:57:24;10.73;;;5.15;;
20012;SDS011;76844;42.852;23.042;2024-02-28T12:59:56;11.15;;;5.50;;
20012;SDS011;76844;42.852;23.042;2024-02-28T13:02:25;15.20;;;6.05;;
20012;SDS011;76844;42.852;23.042;2024-02-28T13:04:55;11.98;;;5.03;;
20012;SDS011;76844;42.852;23.042;2024-02-28T13:07:24;13.15;;;5.90;;
20012;SDS011;76844;42.852;23.042;2024-02-28T13:09:57;11.27;;;5.40;;
20012;SDS011;76844;42.852;23.042;2024-02-28T13:12:29;16.17;;;5.70;;
20012;SDS011;76844;42.852;23.042;2024-02-28T13:15:01;8.45;;;3.95;;
20012;SDS011;76844;42.852;23.042;2024-02-28T13:17:32;15.43;;;5.67;;
20012;SDS011;76844;42.852;23.042;2024-02-28T13:20:03;19.58;;;7.00;;
20012;SDS011;76844;42.852;23.042;2024-02-28T13:22:34;18.40;;;6.22;;
20012;SDS011;76844;42.852;23.042;2024-02-28T13:25:05;12.20;;;3.28;;
20012;SDS011;76844;42.852;23.042;2024-02-28T13:27:35;8.20;;;2.67;;
20012;SDS011;76844;42.852;23.042;2024-02-28T13:30:07;13.10;;;4.03;;
20012;SDS011;76844;42.852;23.042;2024-02-28T13:32:40;9.40;;;3.05;;
20012;SDS011;76844;42.852;23.042;2024-02-28T13:35:12;7.30;;;3.60;;
20012;SDS011;76844;42.852;23.042;2024-02-28T13:37:44;9.13;;;6.05;;
20012;SDS011;76844;42.852;23.042;2024-02-28T13:40:14;12.75;;;4.90;;
20012;SDS011;76844;42.852;23.042;2024-02-28T13:42:44;21.73;;;9.02;;
20012;SDS011;76844;42.852;23.042;2024-02-28T13:45:16;18.48;;;8.00;;
20012;SDS011;76844;42.852;23.042;2024-02-28T13:47:45;14.88;;;7.00;;
20012;SDS011;76844;42.852;23.042;2024-02-28T13:50:15;18.35;;;8.57;;
20012;SDS011;76844;42.852;23.042;2024-02-28T13:52:45;19.73;;;7.88;;
20012;SDS011;76844;42.852;23.042;2024-02-28T13:55:17;15.27;;;6.53;;
20012;SDS011;76844;42.852;23.042;2024-02-28T13:57:47;19.02;;;7.15;;
20012;SDS011;76844;42.852;23.042;2024-02-28T14:00:19;24.13;;;7.57;;
20012;SDS011;76844;42.852;23.042;2024-02-28T14:02:49;18.23;;;7.28;;
20012;SDS011;76844;42.852;23.042;2024-02-28T14:05:20;49.42;;;25.45;;
20012;SDS011;76844;42.852;23.042;2024-02-28T14:07:50;22.50;;;10.18;;
20012;SDS011;76844;42.852;23.042;2024-02-28T14:10:19;37.65;;;23.70;;
20012;SDS011;76844;42.852;23.042;2024-02-28T14:12:52;36.88;;;13.80;;
20012;SDS011;76844;42.852;23.042;2024-02-28T14:15:24;21.83;;;8.63;;
20012;SDS011;76844;42.852;23.042;2024-02-28T14:17:55;35.25;;;17.67;;
20012;SDS011;76844;42.852;23.042;2024-02-28T14:20:26;13.15;;;7.30;;
20012;SDS011;76844;42.852;23.042;2024-02-28T14:22:56;20.33;;;8.70;;
20012;SDS011;76844;42.852;23.042;2024-02-28T14:25:26;23.35;;;11.88;;
20012;SDS011;76844;42.852;23.042;2024-02-28T14:27:57;13.05;;;6.45;;
20012;SDS011;76844;42.852;23.042;2024-02-28T14:30:30;14.35;;;6.45;;
20012;SDS011;76844;42.852;23.042;2024-02-28T14:33:01;15.95;;;7.30;;
20012;SDS011;76844;42.852;23.042;2024-02-28T14:35:35;28.88;;;8.15;;
20012;SDS011;76844;42.852;23.042;2024-02-28T14:38:07;18.48;;;7.05;;
20012;SDS011;76844;42.852;23.042;2024-02-28T14:40:38;16.02;;;6.28;;
20012;SDS011;76844;42.852;23.042;2024-02-28T14:43:08;16.02;;;8.35;;